Time;durP1;ratioP1;P1;durP2;ratioP2;P2;SDS_P1;SDS_P2;PMS_P1;PMS_P2;Temp;Humidity;BMP_temperature;BMP_pressure;BME280_temperature;BME280_humidity;BME280_pressure;Samples;Min_cycle;Max_cycle;Signal;HPM_P1;HPM_P2
2022/01/16 00:04:05;;;;;;;62.15;29.42;;;4.00;99.90;;;;;;6018655;23;20094;-83
2022/01/16 00:04:53;;;;;;;57.95;28.40;;;4.00;99.90;;;;;;6042431;23;20054;-83
2022/01/16 00:07:19;;;;;;;60.10;28.10;;;3.90;99.90;;;;;;6018654;23;20319;-82
2022/01/16 00:09:45;;;;;;;63.42;30.95;;;3.90;99.90;;;;;;6042339;23;20026;-82
2022/01/16 00:12:11;;;;;;;62.28;29.77;;;3.90;99.90;;;;;;5995388;23;20022;-82
2022/01/16 00:14:37;;;;;;;58.33;28.95;;;3.90;99.90;;;;;;6019032;23;20010;-82
2022/01/16 00:17:04;;;;;;;54.05;27.48;;;3.90;99.90;;;;;;5994797;23;20010;-82
2022/01/16 00:19:30;;;;;;;58.85;28.17;;;3.80;99.90;;;;;;6042209;23;20093;-73
2022/01/16 00:21:57;;;;;;;50.03;26.55;;;3.90;99.90;;;;;;5995603;23;20057;-73
2022/01/16 00:24:23;;;;;;;54.70;27.23;;;3.80;99.90;;;;;;6042801;23;20342;-73
2022/01/16 00:26:48;;;;;;;55.42;28.13;;;3.70;99.90;;;;;;6042067;23;20019;-73
2022/01/16 00:29:14;;;;;;;56.33;27.25;;;3.70;99.90;;;;;;6019295;23;20453;-82
2022/01/16 00:31:41;;;;;;;52.45;27.13;;;3.70;99.90;;;;;;6041648;23;20018;-83
2022/01/16 00:34:08;;;;;;;54.03;27.50;;;4.40;99.90;;;;;;6041922;23;20021;-73
2022/01/16 00:36:35;;;;;;;47.20;25.98;;;3.70;99.90;;;;;;6042557;23;20102;-73
2022/01/16 00:39:00;;;;;;;51.55;27.02;;;3.70;99.90;;;;;;6018930;23;20007;-73
2022/01/16 00:41:26;;;;;;;52.50;27.10;;;3.90;99.90;;;;;;6042035;23;20094;-82
2022/01/16 00:43:53;;;;;;;52.65;27.95;;;3.60;99.90;;;;;;5995329;23;20026;-73
2022/01/16 00:46:28;;;;;;;54.83;26.92;;;3.60;99.90;;;;;;6042318;23;20058;-73
2022/01/16 00:48:54;;;;;;;47.42;26.33;;;3.60;99.90;;;;;;5994825;23;20019;-73
2022/01/16 00:51:19;;;;;;;51.30;27.15;;;3.60;99.90;;;;;;6041995;23;20023;-82
2022/01/16 00:53:45;;;;;;;50.42;27.88;;;3.70;99.90;;;;;;5995086;23;20461;-82
2022/01/16 00:56:12;;;;;;;54.33;27.83;;;4.20;99.90;;;;;;6018322;23;20015;-73
2022/01/16 00:58:38;;;;;;;52.67;28.05;;;3.60;99.90;;;;;;6041994;23;20382;-73
2022/01/16 01:01:05;;;;;;;55.20;28.70;;;3.60;99.90;;;;;;6018402;23;20579;-73
2022/01/16 01:03:31;;;;;;;55.55;28.80;;;3.90;99.90;;;;;;6041603;23;20054;-73
2022/01/16 01:05:57;;;;;;;56.75;29.88;;;3.60;99.90;;;;;;6018328;23;20015;-73
2022/01/16 01:08:26;;;;;;;60.70;30.73;;;3.60;99.90;;;;;;5994441;23;20030;-73
2022/01/16 01:10:53;;;;;;;65.72;31.15;;;3.70;99.90;;;;;;5995920;23;20015;-73
2022/01/16 01:13:24;;;;;;;58.78;30.17;;;3.50;99.90;;;;;;6042085;23;20034;-79
2022/01/16 01:15:58;;;;;;;62.72;31.10;;;3.50;99.90;;;;;;6041930;23;20468;-79
2022/01/16 01:18:27;;;;;;;66.60;31.92;;;3.50;99.90;;;;;;6044778;23;20022;-78
2022/01/16 01:20:54;;;;;;;66.45;32.80;;;3.50;99.90;;;;;;5994959;23;20045;-78
2022/01/16 01:23:20;;;;;;;72.28;34.08;;;3.50;99.90;;;;;;6018487;23;20373;-79
2022/01/16 01:25:46;;;;;;;68.00;34.03;;;4.20;99.90;;;;;;6018448;23;20085;-77
2022/01/16 01:28:12;;;;;;;76.88;35.03;;;4.20;99.90;;;;;;6067844;23;20015;-77
2022/01/16 01:30:44;;;;;;;71.72;35.00;;;3.50;99.90;;;;;;6018505;23;20027;-77
2022/01/16 01:33:13;;;;;;;71.93;34.08;;;3.50;99.90;;;;;;6042099;23;20402;-77
2022/01/16 01:35:39;;;;;;;71.90;35.58;;;4.20;99.90;;;;;;6041700;23;20066;-77
2022/01/16 01:38:07;;;;;;;74.43;35.58;;;3.50;99.90;;;;;;6018214;23;20026;-77
2022/01/16 01:40:33;;;;;;;74.43;35.92;;;3.60;99.90;;;;;;6042312;23;20022;-78
2022/01/16 01:51:23;;;;;;;70.05;34.67;;;3.50;99.90;;;;;;6041878;23;20097;-78
2022/01/16 01:53:51;;;;;;;74.93;36.42;;;3.50;99.90;;;;;;6067217;23;20030;-78
2022/01/16 01:56:18;;;;;;;73.47;34.80;;;3.50;99.90;;;;;;6042339;23;20014;-77
2022/01/16 01:58:45;;;;;;;70.85;34.85;;;3.50;99.90;;;;;;6018618;23;20015;-78
2022/01/16 02:01:11;;;;;;;69.55;34.83;;;3.60;99.90;;;;;;6067616;23;20098;-78
2022/01/16 02:06:17;;;;;;;74.47;36.80;;;3.50;99.90;;;;;;6042267;23;20062;-78
2022/01/16 02:08:45;;;;;;;;;;;3.50;99.90;;;;;;6067413;23;20018;-78
2022/01/16 02:11:15;;;;;;;67.53;32.72;;;3.50;99.90;;;;;;6069093;23;20009;-78
2022/01/16 02:28:13;;;;;;;74.93;36.60;;;3.50;99.90;;;;;;6069451;23;20015;-79
2022/01/16 02:31:01;;;;;;;74.43;36.00;;;3.50;99.90;;;;;;6046042;23;20426;-79
2022/01/16 02:36:33;;;;;;;81.25;38.00;;;3.40;99.90;;;;;;6043099;23;20074;-79
2022/01/16 02:39:06;;;;;;;83.90;37.33;;;3.40;99.90;;;;;;6068989;23;20471;-80
2022/01/16 02:41:31;;;;;;;83.63;36.38;;;3.40;99.90;;;;;;6019470;23;20046;-80
2022/01/16 02:44:17;;;;;;;84.63;36.80;;;3.40;99.90;;;;;;6018245;23;20446;-80
2022/01/16 02:46:44;;;;;;;79.72;36.25;;;3.50;99.90;;;;;;6043165;23;20018;-80
2022/01/16 02:49:37;;;;;;;76.75;35.90;;;3.50;99.90;;;;;;6043888;23;20365;-80
2022/01/16 02:52:05;;;;;;;75.95;36.63;;;3.70;99.90;;;;;;6063805;23;20011;-79
2022/01/16 02:54:40;;;;;;;78.18;37.42;;;3.40;99.90;;;;;;6043440;23;20497;-79
2022/01/16 02:57:09;;;;;;;76.45;36.95;;;3.40;99.90;;;;;;6068721;23;20037;-79
2022/01/16 02:59:35;;;;;;;82.35;36.65;;;3.40;99.90;;;;;;6042120;23;20022;-79
2022/01/16 03:02:05;;;;;;;83.97;37.88;;;3.50;99.90;;;;;;6019807;23;20445;-80
2022/01/16 03:04:32;;;;;;;80.13;36.33;;;3.40;99.90;;;;;;6043191;23;20516;-79
2022/01/16 03:07:03;;;;;;;76.38;35.30;;;3.40;99.90;;;;;;6043008;23;20077;-80
2022/01/16 03:09:45;;;;;;;88.15;38.95;;;3.40;99.90;;;;;;6042436;23;20019;-79
2022/01/16 03:12:13;;;;;;;80.07;35.78;;;3.40;99.90;;;;;;5998568;23;20026;-80
2022/01/16 03:14:39;;;;;;;82.80;36.95;;;4.30;99.90;;;;;;5996449;23;20033;-80
2022/01/16 03:17:05;;;;;;;80.88;36.33;;;3.40;99.90;;;;;;6042988;23;20019;-80
2022/01/16 03:22:16;;;;;;;76.97;34.97;;;4.30;99.90;;;;;;6046746;23;20065;-80
2022/01/16 03:24:44;;;;;;;80.82;36.80;;;3.40;99.90;;;;;;6042696;23;20019;-78
2022/01/16 03:27:13;;;;;;;84.35;36.53;;;3.40;99.90;;;;;;6068396;23;20018;-78
2022/01/16 03:29:43;;;;;;;78.47;36.65;;;3.40;99.90;;;;;;6019328;23;20350;-78
2022/01/16 03:32:12;;;;;;;82.07;37.25;;;3.40;99.90;;;;;;6019303;23;20019;-78
2022/01/16 03:34:37;;;;;;;83.93;37.08;;;4.10;99.90;;;;;;6068320;23;20028;-78
2022/01/16 03:37:04;;;;;;;79.60;36.20;;;4.40;99.90;;;;;;6042841;23;20019;-78
2022/01/16 03:39:30;;;;;;;81.22;36.47;;;3.40;99.90;;;;;;5995566;23;20387;-77
2022/01/16 03:42:01;;;;;;;92.30;38.67;;;3.40;99.90;;;;;;6019321;23;20030;-77
2022/01/16 03:44:27;;;;;;;87.10;39.38;;;3.50;99.90;;;;;;6043340;23;20019;-77
2022/01/16 03:46:52;;;;;;;88.15;38.50;;;3.50;99.90;;;;;;6019373;23;20356;-78
2022/01/16 03:49:22;;;;;;;91.63;38.92;;;3.50;99.90;;;;;;6019107;23;20026;-78
2022/01/16 03:51:52;;;;;;;85.70;38.97;;;3.50;99.90;;;;;;6042337;23;20050;-78
2022/01/16 03:54:21;;;;;;;88.93;40.10;;;3.50;99.90;;;;;;6067977;23;20007;-78
2022/01/16 03:56:47;;;;;;;90.38;38.53;;;3.50;99.90;;;;;;6068062;23;20019;-78
2022/01/16 03:59:14;;;;;;;85.93;40.20;;;3.50;99.90;;;;;;6019591;23;20015;-78
2022/01/16 04:01:40;;;;;;;96.45;42.00;;;3.50;99.90;;;;;;6042745;23;20058;-79
2022/01/16 04:04:07;;;;;;;92.25;39.03;;;3.50;99.90;;;;;;6042835;23;20021;-78
2022/01/16 04:06:35;;;;;;;96.35;40.70;;;3.50;99.90;;;;;;5996171;23;20307;-78
2022/01/16 04:09:02;;;;;;;94.82;39.50;;;3.50;99.90;;;;;;6042775;23;20030;-78
2022/01/16 04:11:30;;;;;;;94.43;40.60;;;3.60;99.90;;;;;;6018735;23;20015;-80
2022/01/16 04:14:23;;;;;;;90.10;39.40;;;3.60;99.90;;;;;;6043080;23;20057;-79
2022/01/16 04:16:51;;;;;;;94.18;40.75;;;3.60;99.90;;;;;;6041954;23;20019;-79
2022/01/16 04:19:18;;;;;;;97.13;41.05;;;3.70;99.90;;;;;;6019253;23;20085;-79
2022/01/16 04:21:44;;;;;;;92.70;39.63;;;3.60;99.90;;;;;;6042467;23;20065;-79
2022/01/16 04:24:09;;;;;;;94.70;39.97;;;3.90;99.90;;;;;;6042376;23;20446;-79
2022/01/16 04:26:35;;;;;;;98.75;40.50;;;3.60;99.90;;;;;;6018683;23;20354;-80
2022/01/16 04:29:01;;;;;;;107.95;40.53;;;3.70;99.90;;;;;;6042097;23;20014;-79
2022/01/16 04:31:26;;;;;;;102.25;40.75;;;3.70;99.90;;;;;;6042192;23;20015;-79
2022/01/16 04:33:52;;;;;;;94.18;38.70;;;3.90;99.90;;;;;;6042642;23;20333;-79
2022/01/16 04:36:18;;;;;;;100.43;41.47;;;3.70;99.90;;;;;;5995414;23;20015;-79
2022/01/16 04:38:47;;;;;;;97.13;39.63;;;3.70;99.90;;;;;;6042366;23;20105;-79
2022/01/16 04:43:59;;;;;;;96.15;39.85;;;3.80;99.90;;;;;;6067416;23;20050;-79
2022/01/16 04:46:28;;;;;;;100.57;41.00;;;4.20;99.90;;;;;;6042518;23;20025;-79
2022/01/16 04:48:55;;;;;;;98.82;40.90;;;4.10;99.90;;;;;;6067753;23;20019;-79
2022/01/16 04:51:22;;;;;;;99.68;40.08;;;3.70;99.90;;;;;;6042427;23;20476;-79
2022/01/16 04:53:48;;;;;;;95.80;39.50;;;3.80;99.90;;;;;;6042025;23;20085;-79
2022/01/16 04:56:17;;;;;;;99.28;42.40;;;3.80;99.90;;;;;;5995248;23;20015;-79
2022/01/16 04:58:44;;;;;;;107.10;41.67;;;3.90;99.90;;;;;;6067572;23;20073;-79
2022/01/16 05:01:10;;;;;;;109.95;42.00;;;4.30;99.90;;;;;;6067727;23;20070;-79
2022/01/16 05:03:38;;;;;;;104.38;41.83;;;4.70;99.90;;;;;;6042512;23;20034;-78
2022/01/16 05:06:05;;;;;;;109.70;42.03;;;3.90;99.90;;;;;;6042284;23;20025;-78
2022/01/16 05:08:31;;;;;;;114.32;43.35;;;3.90;99.90;;;;;;6067550;23;20023;-78
2022/01/16 05:11:01;;;;;;;111.25;41.60;;;3.90;99.90;;;;;;6067288;23;20450;-78
2022/01/16 05:16:34;;;;;;;108.47;40.67;;;3.90;99.90;;;;;;6019049;23;20086;-79
2022/01/16 05:16:35;;;;;;;107.88;42.08;;;3.90;99.90;;;;;;6041336;23;20453;-78
2022/01/16 05:19:09;;;;;;;112.43;43.15;;;4.30;99.90;;;;;;6018578;23;20047;-78
2022/01/16 05:21:36;;;;;;;114.30;43.58;;;3.90;99.90;;;;;;6042626;23;20538;-79
2022/01/16 05:24:06;;;;;;;113.65;43.80;;;3.90;99.90;;;;;;5995370;23;20133;-78
2022/01/16 05:26:34;;;;;;;104.07;41.00;;;4.00;99.90;;;;;;6067997;23;20082;-78
2022/01/16 05:29:00;;;;;;;117.47;42.63;;;4.00;99.90;;;;;;6018376;23;20015;-78
2022/01/16 05:31:25;;;;;;;112.28;40.88;;;4.00;99.90;;;;;;6017432;23;20518;-78
2022/01/16 05:33:51;;;;;;;112.25;42.33;;;4.00;99.90;;;;;;6042140;23;20019;-77
2022/01/16 05:36:20;;;;;;;111.30;42.97;;;4.10;99.90;;;;;;6042390;23;20074;-77
2022/01/16 05:38:45;;;;;;;114.28;42.85;;;4.10;99.90;;;;;;6067378;23;20023;-77
2022/01/16 05:41:11;;;;;;;113.90;42.88;;;4.60;99.90;;;;;;6041746;23;20098;-78
2022/01/16 05:43:37;;;;;;;112.47;42.28;;;4.10;99.90;;;;;;6019473;23;20022;-78
2022/01/16 05:46:05;;;;;;;115.13;42.75;;;4.10;99.90;;;;;;6044232;23;20103;-78
2022/01/16 05:48:31;;;;;;;116.38;42.17;;;4.10;99.90;;;;;;5996066;23;20019;-79
2022/01/16 05:50:56;;;;;;;109.35;42.47;;;4.10;99.90;;;;;;6019772;23;20026;-79
2022/01/16 05:53:23;;;;;;;119.03;42.80;;;4.20;99.90;;;;;;5996963;23;20015;-79
2022/01/16 05:55:49;;;;;;;120.28;44.95;;;4.10;99.90;;;;;;6043860;23;20010;-79
2022/01/16 05:58:15;;;;;;;127.25;44.10;;;4.20;99.90;;;;;;6043594;23;20346;-80
2022/01/16 06:00:41;;;;;;;116.53;43.03;;;4.80;99.90;;;;;;6043690;23;20497;-80
2022/01/16 06:03:08;;;;;;;117.07;43.45;;;5.20;99.90;;;;;;6043337;23;20054;-80
2022/01/16 06:05:34;;;;;;;107.40;41.95;;;4.50;99.90;;;;;;6020117;23;20551;-80
2022/01/16 06:08:11;;;;;;;110.07;42.42;;;4.20;99.90;;;;;;6043199;23;20019;-80
2022/01/16 06:10:37;;;;;;;112.47;43.97;;;4.10;99.90;;;;;;6020055;23;20023;-80
2022/01/16 06:13:04;;;;;;;116.20;44.22;;;4.10;99.90;;;;;;6044240;23;20363;-80
2022/01/16 06:15:33;;;;;;;119.25;43.75;;;4.20;99.90;;;;;;6043509;23;20073;-80
2022/01/16 06:18:00;;;;;;;112.05;43.33;;;4.20;99.90;;;;;;6043606;23;20083;-79
2022/01/16 06:20:26;;;;;;;116.50;44.15;;;4.20;99.90;;;;;;6019275;23;20382;-79
2022/01/16 06:22:55;;;;;;;117.15;43.28;;;4.40;99.90;;;;;;6043835;23;20082;-79
2022/01/16 06:25:24;;;;;;;116.00;43.58;;;4.20;99.90;;;;;;6043380;23;20026;-81
2022/01/16 06:27:50;;;;;;;121.03;44.45;;;4.20;99.90;;;;;;6043641;23;20026;-83
2022/01/16 06:30:20;;;;;;;120.80;45.90;;;4.20;99.90;;;;;;5996997;23;20015;-82
2022/01/16 06:32:46;;;;;;;115.25;43.83;;;4.80;99.90;;;;;;6069617;23;20081;-82
2022/01/16 06:35:16;;;;;;;122.10;44.80;;;4.20;99.90;;;;;;5996793;23;20022;-82
2022/01/16 06:37:44;;;;;;;128.77;45.08;;;4.20;99.90;;;;;;6020052;23;20323;-82
2022/01/16 06:40:11;;;;;;;120.22;45.13;;;4.20;99.90;;;;;;6020217;23;20026;-82
2022/01/16 06:42:38;;;;;;;117.70;44.88;;;4.30;99.90;;;;;;6044363;23;20307;-82
2022/01/16 06:45:06;;;;;;;123.30;45.53;;;4.30;99.90;;;;;;6020292;23;20015;-82
2022/01/16 06:47:35;;;;;;;119.97;45.63;;;4.30;99.90;;;;;;5997020;23;20015;-82
2022/01/16 06:50:00;;;;;;;128.55;47.22;;;4.30;99.90;;;;;;6043440;23;20457;-82
2022/01/16 06:52:26;;;;;;;127.75;47.63;;;4.30;99.90;;;;;;6043452;23;20030;-82
2022/01/16 06:54:52;;;;;;;117.90;45.92;;;4.80;99.90;;;;;;6043406;23;20018;-82
2022/01/16 06:57:18;;;;;;;130.02;46.55;;;4.40;99.90;;;;;;6044044;23;20472;-82
2022/01/16 06:59:45;;;;;;;121.05;45.72;;;4.40;99.90;;;;;;5996399;23;20481;-82
2022/01/16 07:02:12;;;;;;;119.53;46.42;;;4.60;99.90;;;;;;6044135;23;20093;-82
2022/01/16 07:04:38;;;;;;;127.75;49.20;;;4.50;99.90;;;;;;6043559;23;20458;-82
2022/01/16 07:07:04;;;;;;;121.60;46.67;;;4.50;99.90;;;;;;6019700;23;20102;-82
2022/01/16 07:09:30;;;;;;;114.88;46.20;;;4.60;99.90;;;;;;5995827;23;20023;-83
2022/01/16 07:11:55;;;;;;;123.25;46.60;;;4.60;99.90;;;;;;6019108;23;20023;-83
2022/01/16 07:14:21;;;;;;;118.53;45.30;;;5.40;99.90;;;;;;6019841;23;20021;-84
2022/01/16 07:16:47;;;;;;;125.25;47.92;;;4.60;99.90;;;;;;6043516;23;20015;-83
2022/01/16 07:19:16;;;;;;;118.97;45.92;;;4.60;99.90;;;;;;6019857;23;20011;-83
2022/01/16 07:21:45;;;;;;;110.53;46.53;;;5.00;99.90;;;;;;5996687;23;20014;-81
2022/01/16 07:24:16;;;;;;;117.30;46.15;;;4.60;99.90;;;;;;6019607;23;20015;-82
2022/01/16 07:26:45;;;;;;;127.78;47.95;;;5.10;99.90;;;;;;6043070;23;20025;-82
2022/01/16 07:29:12;;;;;;;116.28;48.55;;;4.40;99.90;;;;;;6019100;23;20402;-82
2022/01/16 07:31:38;;;;;;;109.50;45.65;;;4.80;99.90;;;;;;6043479;23;20019;-82
2022/01/16 07:34:05;;;;;;;112.00;47.03;;;4.80;99.90;;;;;;6019125;23;20082;-82
2022/01/16 07:36:31;;;;;;;117.20;47.47;;;4.90;99.90;;;;;;6043106;23;20078;-82
2022/01/16 07:38:57;;;;;;;115.45;45.83;;;5.30;99.90;;;;;;6019342;23;20610;-82
2022/01/16 07:41:23;;;;;;;114.15;47.08;;;4.60;99.90;;;;;;6019601;23;20078;-82
2022/01/16 07:43:49;;;;;;;118.88;47.45;;;4.80;99.90;;;;;;6043287;23;20099;-82
2022/01/16 07:46:17;;;;;;;109.53;45.83;;;4.80;99.90;;;;;;6068770;23;20019;-82
2022/01/16 07:48:42;;;;;;;108.72;46.22;;;4.90;99.90;;;;;;6043115;23;20456;-82
2022/01/16 07:51:08;;;;;;;113.32;47.70;;;4.90;99.90;;;;;;6019406;23;20051;-80
2022/01/16 07:53:34;;;;;;;109.57;46.60;;;4.90;99.90;;;;;;6043395;23;20062;-81
2022/01/16 07:56:00;;;;;;;109.72;46.33;;;4.90;99.90;;;;;;6018163;23;20463;-83
2022/01/16 07:58:26;;;;;;;106.03;46.45;;;6.00;99.90;;;;;;6018843;23;20011;-78
2022/01/16 08:00:52;;;;;;;105.22;46.25;;;5.00;99.90;;;;;;6042907;23;20023;-80
2022/01/16 08:03:17;;;;;;;104.75;44.80;;;5.70;99.90;;;;;;6042786;23;20038;-79
2022/01/16 08:05:43;;;;;;;103.05;44.63;;;5.00;99.90;;;;;;6018465;23;20085;-79
2022/01/16 08:08:12;;;;;;;104.28;45.45;;;5.10;99.90;;;;;;6067735;23;20022;-72
2022/01/16 08:10:38;;;;;;;109.97;45.25;;;5.00;99.90;;;;;;6042041;23;20026;-72
2022/01/16 08:13:04;;;;;;;105.63;45.20;;;5.30;99.90;;;;;;6067398;23;20018;-72
2022/01/16 08:15:29;;;;;;;101.88;45.80;;;5.70;99.90;;;;;;6041932;23;20094;-74
2022/01/16 08:17:55;;;;;;;104.35;43.58;;;5.00;99.90;;;;;;6041422;23;20087;-77
2022/01/16 08:20:21;;;;;;;99.82;46.30;;;5.10;99.90;;;;;;6041559;23;20694;-77
2022/01/16 08:22:47;;;;;;;104.68;43.50;;;5.10;99.90;;;;;;6041949;23;20322;-77
2022/01/16 08:25:13;;;;;;;99.40;45.38;;;5.50;99.90;;;;;;5995599;23;20022;-77
2022/01/16 08:27:39;;;;;;;96.38;44.58;;;5.20;99.90;;;;;;6019299;23;20102;-77
2022/01/16 08:30:06;;;;;;;94.35;42.70;;;5.20;99.90;;;;;;5995497;23;20057;-77
2022/01/16 08:32:32;;;;;;;93.78;43.08;;;5.20;99.90;;;;;;6041991;23;20018;-77
2022/01/16 08:34:58;;;;;;;92.95;42.22;;;5.20;99.90;;;;;;6041983;23;20346;-71
2022/01/16 08:37:25;;;;;;;85.18;40.70;;;5.30;99.90;;;;;;6018583;23;20022;-78
2022/01/16 08:39:51;;;;;;;89.32;39.85;;;5.30;99.90;;;;;;6067435;23;20026;-77
2022/01/16 08:42:17;;;;;;;84.35;40.92;;;5.30;99.90;;;;;;6041858;23;20019;-78
2022/01/16 08:44:43;;;;;;;78.60;39.03;;;5.40;99.90;;;;;;5995336;23;20019;-78
2022/01/16 08:47:09;;;;;;;78.70;40.53;;;5.40;99.90;;;;;;6041992;23;20019;-78
2022/01/16 08:49:35;;;;;;;78.53;39.35;;;6.20;99.90;;;;;;6017955;23;20142;-79
2022/01/16 08:52:02;;;;;;;77.35;39.42;;;5.50;99.90;;;;;;6067608;23;20727;-79
2022/01/16 08:54:28;;;;;;;85.10;40.15;;;5.50;99.90;;;;;;6067487;23;20441;-79
2022/01/16 08:56:54;;;;;;;85.03;40.92;;;5.90;99.90;;;;;;6041671;23;20022;-79
2022/01/16 08:59:19;;;;;;;72.20;38.35;;;5.50;99.90;;;;;;6042175;23;20053;-79
2022/01/16 09:01:49;;;;;;;76.68;39.45;;;5.60;99.90;;;;;;5995151;23;20021;-82
2022/01/16 09:04:14;;;;;;;75.55;40.13;;;5.50;99.90;;;;;;6067531;23;20015;-78
2022/01/16 09:06:40;;;;;;;79.07;38.95;;;5.60;99.90;;;;;;5994407;23;20059;-77
2022/01/16 09:09:09;;;;;;;75.93;38.38;;;6.00;99.90;;;;;;5994558;23;20026;-80
2022/01/16 09:11:40;;;;;;;74.28;37.80;;;5.70;99.90;;;;;;6042150;23;20086;-79
2022/01/16 09:14:06;;;;;;;77.35;38.22;;;5.70;99.90;;;;;;6042629;23;20019;-80
2022/01/16 09:16:33;;;;;;;67.53;35.97;;;6.10;99.90;;;;;;6018233;23;20026;-81
2022/01/16 09:18:59;;;;;;;74.70;36.15;;;5.70;99.90;;;;;;6043456;23;20018;-80
2022/01/16 09:21:25;;;;;;;65.85;35.00;;;5.80;99.90;;;;;;6044099;23;20094;-75
2022/01/16 09:23:51;;;;;;;66.90;33.67;;;6.20;99.90;;;;;;6019986;23;20062;-82
2022/01/16 09:26:18;;;;;;;58.70;31.90;;;5.80;99.90;;;;;;6043716;23;20018;-77
2022/01/16 09:28:45;;;;;;;68.22;34.22;;;5.90;99.90;;;;;;6019841;23;20034;-76
2022/01/16 09:31:11;;;;;;;57.72;32.70;;;5.90;99.90;;;;;;6068770;23;20050;-78
2022/01/16 09:33:37;;;;;;;59.72;32.42;;;5.90;99.90;;;;;;6020544;23;20022;-81
2022/01/16 09:36:04;;;;;;;56.53;32.67;;;6.00;99.90;;;;;;6070141;23;20014;-80
2022/01/16 09:38:38;;;;;;;58.90;30.08;;;6.00;99.90;;;;;;6019742;23;20464;-81
2022/01/16 09:41:07;;;;;;;51.83;30.58;;;6.00;99.90;;;;;;6043967;23;20481;-79
2022/01/16 09:43:35;;;;;;;61.35;30.35;;;6.10;99.90;;;;;;6068375;23;20085;-78
2022/01/16 09:46:02;;;;;;;53.17;29.40;;;6.10;99.90;;;;;;6020061;23;20019;-81
2022/01/16 09:48:29;;;;;;;54.58;29.02;;;6.10;99.90;;;;;;6069265;23;20018;-81
2022/01/16 09:50:55;;;;;;;57.10;29.08;;;6.50;99.90;;;;;;6043753;23;20018;-81
2022/01/16 09:53:22;;;;;;;60.67;29.55;;;6.20;99.90;;;;;;6043485;23;20011;-81
2022/01/16 09:55:49;;;;;;;51.65;30.38;;;6.20;99.90;;;;;;6020938;23;20057;-81
2022/01/16 09:58:15;;;;;;;56.22;29.15;;;6.20;99.90;;;;;;6043235;23;20022;-81
2022/01/16 10:00:41;;;;;;;47.75;27.73;;;6.20;99.90;;;;;;6020453;23;20089;-79
2022/01/16 10:03:06;;;;;;;56.13;29.38;;;6.20;99.90;;;;;;6043529;23;20054;-80
2022/01/16 10:05:35;;;;;;;49.75;27.15;;;6.60;99.90;;;;;;6069082;23;20019;-81
2022/01/16 10:08:05;;;;;;;54.03;28.33;;;6.60;99.90;;;;;;6044066;23;20449;-76
2022/01/16 10:10:34;;;;;;;53.38;27.23;;;6.40;99.90;;;;;;6067802;23;20014;-75
2022/01/16 10:13:07;;;;;;;58.17;28.67;;;6.60;99.90;;;;;;6069027;23;20334;-75
2022/01/16 10:15:34;;;;;;;54.63;27.92;;;6.40;99.90;;;;;;6042994;23;20057;-75
2022/01/16 10:18:03;;;;;;;53.47;28.25;;;6.50;99.90;;;;;;6068792;23;20075;-78
2022/01/16 10:20:41;;;;;;;58.60;28.52;;;6.50;99.90;;;;;;6044496;23;20014;-78
2022/01/16 10:23:16;;;;;;;54.05;27.85;;;6.50;99.90;;;;;;6069320;23;20046;-78
2022/01/16 10:25:45;;;;;;;49.50;26.92;;;6.50;99.90;;;;;;6069208;23;20014;-78
2022/01/16 10:28:20;;;;;;;54.00;27.17;;;6.60;99.90;;;;;;6043178;23;20011;-78
2022/01/16 10:30:59;;;;;;;56.38;27.60;;;6.60;99.90;;;;;;6043000;23;20019;-78
2022/01/16 10:33:30;;;;;;;57.22;28.42;;;6.60;99.90;;;;;;6069082;23;20026;-78
2022/01/16 10:35:56;;;;;;;56.85;27.58;;;6.70;99.90;;;;;;6069291;23;20358;-78
2022/01/16 10:38:28;;;;;;;49.35;26.17;;;6.70;99.90;;;;;;6043604;23;20022;-78
2022/01/16 10:40:59;;;;;;;51.08;25.45;;;7.00;99.90;;;;;;6020030;23;20019;-78
2022/01/16 10:43:40;;;;;;;52.20;26.27;;;6.50;99.90;;;;;;6043257;23;20409;-78
2022/01/16 10:46:08;;;;;;;51.75;24.83;;;6.80;99.90;;;;;;6068354;23;20060;-78
2022/01/16 10:48:33;;;;;;;51.95;26.38;;;6.80;99.90;;;;;;6069115;23;20015;-78
2022/01/16 10:51:01;;;;;;;50.10;26.52;;;6.80;99.90;;;;;;6068807;23;20015;-78
2022/01/16 10:53:28;;;;;;;48.28;24.90;;;6.90;99.90;;;;;;6019900;23;20046;-78
2022/01/16 10:55:56;;;;;;;40.35;23.95;;;6.90;99.90;;;;;;6020177;23;20042;-78
2022/01/16 10:58:38;;;;;;;46.60;23.33;;;6.90;99.90;;;;;;6019727;23;20018;-78
2022/01/16 11:01:16;;;;;;;47.85;23.52;;;6.90;99.90;;;;;;6043157;23;20089;-77
2022/01/16 11:03:50;;;;;;;44.22;23.13;;;6.90;99.90;;;;;;6042864;23;20025;-78
2022/01/16 11:06:18;;;;;;;42.60;23.48;;;6.90;99.90;;;;;;6068634;23;20014;-78
2022/01/16 11:08:52;;;;;;;48.20;23.45;;;7.00;99.90;;;;;;6042935;23;20022;-78
2022/01/16 11:11:20;;;;;;;40.55;22.38;;;7.00;99.90;;;;;;6068871;23;20062;-78
2022/01/16 11:13:46;;;;;;;49.88;22.45;;;7.00;99.90;;;;;;6068739;23;20019;-78
2022/01/16 11:16:12;;;;;;;45.40;21.23;;;7.00;99.90;;;;;;6043329;23;20018;-78
2022/01/16 11:18:40;;;;;;;44.75;21.75;;;7.50;99.90;;;;;;6042749;23;20022;-77
2022/01/16 11:21:15;;;;;;;39.40;20.13;;;7.00;99.90;;;;;;6068515;23;20022;-77
2022/01/16 11:26:14;;;;;;;44.97;20.67;;;7.00;99.90;;;;;;6042708;23;20086;-78
2022/01/16 11:28:41;;;;;;;39.92;19.50;;;7.00;99.90;;;;;;6068370;23;20007;-78
2022/01/16 11:31:09;;;;;;;38.00;20.15;;;7.70;99.90;;;;;;6019256;23;20070;-78
2022/01/16 11:33:37;;;;;;;39.08;19.52;;;6.90;99.90;;;;;;6019382;23;20010;-77
2022/01/16 11:36:08;;;;;;;42.55;19.38;;;7.10;99.90;;;;;;6067841;23;20021;-77
2022/01/16 11:38:37;;;;;;;39.97;18.13;;;7.10;99.90;;;;;;6043024;23;20015;-78
2022/01/16 11:41:30;;;;;;;39.75;17.95;;;7.10;99.90;;;;;;6042784;23;20080;-78
2022/01/16 11:43:59;;;;;;;37.75;18.33;;;7.10;99.90;;;;;;6068643;23;20023;-78
2022/01/16 11:46:29;;;;;;;40.55;16.42;;;7.10;99.90;;;;;;6042972;23;20015;-79
2022/01/16 11:48:58;;;;;;;39.65;17.67;;;7.10;99.90;;;;;;6068402;23;20029;-78
2022/01/16 11:51:33;;;;;;;39.88;16.30;;;7.10;99.90;;;;;;6019166;23;20094;-78
2022/01/16 11:53:58;;;;;;;32.33;15.75;;;7.20;99.90;;;;;;6042720;23;20014;-78
2022/01/16 11:56:42;;;;;;;35.80;15.10;;;7.20;99.90;;;;;;6042706;23;20351;-78
2022/01/16 11:59:11;;;;;;;34.03;15.07;;;7.20;99.90;;;;;;6042640;23;20011;-78
2022/01/16 12:01:51;;;;;;;37.78;14.88;;;7.20;99.90;;;;;;6068433;23;20019;-78
2022/01/16 12:04:29;;;;;;;34.55;13.90;;;7.20;99.90;;;;;;6042766;23;20011;-77
2022/01/16 12:07:05;;;;;;;33.78;14.35;;;7.20;99.90;;;;;;6042604;23;20089;-77
2022/01/16 12:09:38;;;;;;;34.92;13.27;;;7.30;99.90;;;;;;6041869;23;20070;-78
2022/01/16 12:12:24;;;;;;;26.98;12.20;;;7.40;99.90;;;;;;6068149;23;20101;-78
2022/01/16 12:15:03;;;;;;;30.42;12.07;;;7.30;99.90;;;;;;6018613;23;20015;-78
2022/01/16 12:17:43;;;;;;;31.63;11.50;;;7.30;99.90;;;;;;6042501;23;20022;-78
2022/01/16 12:20:17;;;;;;;29.13;11.40;;;7.30;99.90;;;;;;6042303;23;20093;-78
2022/01/16 12:22:48;;;;;;;26.33;10.85;;;7.30;99.90;;;;;;6067819;23;20017;-78
2022/01/16 12:25:34;;;;;;;24.90;10.75;;;7.30;99.90;;;;;;6042564;23;20046;-77
2022/01/16 12:28:08;;;;;;;25.83;10.27;;;7.40;99.90;;;;;;6067791;23;20017;-78
2022/01/16 12:30:49;;;;;;;32.38;10.48;;;7.30;99.90;;;;;;6018795;23;20014;-78
2022/01/16 12:33:14;;;;;;;23.58;9.57;;;7.40;99.90;;;;;;6042057;23;20015;-78
2022/01/16 12:35:55;;;;;;;28.27;9.85;;;7.40;99.90;;;;;;6042351;23;20450;-75
2022/01/16 12:38:29;;;;;;;28.20;9.55;;;7.40;99.90;;;;;;6067765;23;20082;-75
2022/01/16 12:41:03;;;;;;;27.52;10.30;;;7.40;99.90;;;;;;6041785;23;20083;-75
2022/01/16 12:43:31;;;;;;;23.60;9.18;;;7.40;99.90;;;;;;6042671;23;20391;-75
2022/01/16 12:45:59;;;;;;;24.25;9.60;;;7.40;99.90;;;;;;6068210;23;20014;-75
2022/01/16 12:48:24;;;;;;;27.70;9.10;;;7.50;99.90;;;;;;6042198;23;20051;-76
2022/01/16 12:50:59;;;;;;;26.02;9.40;;;7.80;99.90;;;;;;6042898;23;20014;-75
2022/01/16 12:53:41;;;;;;;26.98;9.52;;;7.50;99.90;;;;;;6067553;23;20050;-75
2022/01/16 12:56:18;;;;;;;21.92;8.55;;;7.70;99.90;;;;;;6042344;23;20014;-76
2022/01/16 12:58:45;;;;;;;19.48;7.95;;;7.50;99.90;;;;;;6067476;23;20347;-75
2022/01/16 13:01:11;;;;;;;20.95;8.57;;;7.50;99.90;;;;;;6042603;23;20042;-76
2022/01/16 13:03:38;;;;;;;24.83;9.15;;;7.50;99.90;;;;;;6067763;23;20371;-76
2022/01/16 13:06:19;;;;;;;22.33;8.02;;;7.50;99.90;;;;;;6067753;23;20019;-76
2022/01/16 13:08:52;;;;;;;19.98;8.05;;;7.50;99.90;;;;;;6017967;23;20060;-76
2022/01/16 13:11:18;;;;;;;27.27;8.80;;;7.50;99.90;;;;;;6066280;23;20090;-76
2022/01/16 13:13:44;;;;;;;23.40;9.23;;;7.60;99.90;;;;;;6067403;23;20019;-76
2022/01/16 13:16:27;;;;;;;19.90;8.77;;;7.50;99.90;;;;;;6068040;23;20018;-76
2022/01/16 13:19:05;;;;;;;22.23;8.60;;;7.50;99.90;;;;;;6067528;23;20067;-76
2022/01/16 13:21:43;;;;;;;20.45;8.27;;;7.50;99.90;;;;;;6042117;23;20342;-76